createdAt,value
2022-12-01T00:01:10.021Z,65.32
2022-12-01T00:03:36.972Z,75.07
2022-12-01T00:06:06.410Z,76.18
2022-12-01T00:08:33.487Z,73.93
2022-12-01T00:11:10.142Z,72.90
2022-12-01T00:13:36.702Z,75.32
2022-12-01T00:16:13.888Z,77.57
2022-12-01T00:18:40.828Z,72.60
2022-12-01T00:21:15.028Z,74.57
2022-12-01T00:23:50.702Z,79.40
2022-12-01T00:26:19.882Z,76.75
2022-12-01T00:28:50.460Z,76.25
2022-12-01T00:31:16.911Z,74.15
2022-12-01T00:33:43.476Z,71.80
2022-12-01T00:36:10.108Z,78.07
2022-12-01T00:38:37.791Z,72.07
2022-12-01T00:41:04.359Z,71.50
2022-12-01T00:43:31.256Z,77.07
2022-12-01T00:45:57.832Z,74.40
2022-12-01T00:48:25.729Z,78.00
2022-12-01T00:50:53.022Z,70.85
2022-12-01T00:53:19.695Z,71.55
2022-12-01T00:55:46.771Z,71.07
2022-12-01T00:58:13.223Z,71.50
2022-12-01T01:00:39.674Z,70.28
2022-12-01T01:03:08.797Z,67.25
2022-12-01T01:05:37.182Z,72.43
2022-12-01T01:08:10.517Z,69.30
2022-12-01T01:10:42.174Z,64.50
2022-12-01T01:13:09.123Z,69.63
2022-12-01T01:15:35.918Z,68.68
2022-12-01T01:18:04.754Z,67.13
2022-12-01T01:20:31.387Z,71.93
2022-12-01T01:22:57.811Z,71.88
2022-12-01T01:25:24.322Z,66.30
2022-12-01T01:27:51.224Z,70.28
2022-12-01T01:30:18.315Z,66.30
2022-12-01T01:32:44.677Z,66.78
2022-12-01T01:35:11.075Z,65.32
2022-12-01T01:37:37.476Z,64.55
2022-12-01T01:40:04.449Z,65.18
2022-12-01T01:42:31.340Z,67.25
2022-12-01T01:47:36.004Z,69.68
2022-12-01T01:50:10.370Z,59.42
2022-12-01T01:52:41.165Z,69.78
2022-12-01T01:55:08.442Z,64.78
2022-12-01T01:57:35.854Z,70.88
2022-12-01T02:00:07.826Z,63.65
2022-12-01T02:02:40.907Z,69.60
2022-12-01T02:05:11.928Z,73.55
2022-12-01T02:07:41.451Z,72.10
2022-12-01T02:10:10.878Z,65.55
2022-12-01T02:12:54.071Z,71.53
2022-12-01T02:15:45.165Z,70.50
2022-12-01T02:18:22.574Z,69.85
2022-12-01T02:21:21.806Z,70.43
2022-12-01T02:24:07.088Z,74.70
2022-12-01T02:26:41.090Z,69.47
2022-12-01T02:29:24.331Z,65.25
2022-12-01T02:32:12.218Z,66.07
2022-12-01T02:34:54.934Z,66.80
2022-12-01T02:37:47.181Z,62.45
2022-12-01T02:40:25.401Z,62.03
2022-12-01T02:43:03.169Z,68.32
2022-12-01T02:45:41.545Z,66.95
2022-12-01T02:48:19.367Z,67.35
2022-12-01T02:50:46.484Z,69.22
2022-12-01T02:53:15.621Z,66.40
2022-12-01T02:55:53.446Z,76.50
2022-12-01T02:58:20.832Z,78.30
2022-12-01T03:01:01.917Z,77.18
2022-12-01T03:03:45.015Z,72.15
2022-12-01T03:06:23.850Z,73.53
2022-12-01T03:09:10.166Z,74.22
2022-12-01T03:12:25.625Z,77.03
2022-12-01T03:15:12.576Z,80.70
2022-12-01T03:18:17.837Z,76.95
2022-12-01T03:21:06.855Z,72.05
2022-12-01T03:23:37.748Z,73.28
2022-12-01T03:26:09.658Z,78.82
2022-12-01T03:28:42.573Z,73.43
2022-12-01T03:31:14.948Z,75.88
2022-12-01T03:33:52.329Z,69.10
2022-12-01T03:36:31.762Z,68.63
2022-12-01T03:39:04.642Z,68.72
2022-12-01T03:41:39.550Z,65.70
2022-12-01T03:44:14.854Z,66.50
2022-12-01T03:46:52.085Z,70.47
2022-12-01T03:49:19.726Z,61.22
2022-12-01T03:52:20.160Z,72.70
2022-12-01T03:54:52.331Z,71.07
2022-12-01T03:57:29.579Z,68.53
2022-12-01T03:59:56.503Z,60.88
2022-12-01T04:02:27.586Z,64.95
2022-12-01T04:04:54.279Z,58.30
2022-12-01T04:07:21.862Z,58.25
2022-12-01T04:09:48.589Z,62.83
2022-12-01T04:15:03.619Z,58.60
2022-12-01T04:17:30.613Z,59.05
2022-12-01T04:22:24.670Z,58.90
2022-12-01T04:24:52.570Z,54.58
2022-12-01T04:27:19.941Z,59.70
2022-12-01T04:29:47.152Z,59.08
2022-12-01T04:32:14.080Z,54.27
2022-12-01T04:34:40.570Z,52.75
2022-12-01T04:37:07.603Z,49.05
2022-12-01T04:39:34.962Z,50.50
2022-12-01T04:42:01.443Z,48.45
2022-12-01T04:44:34.289Z,51.60
2022-12-01T04:47:01.441Z,54.17
2022-12-01T04:49:28.452Z,59.50
2022-12-01T04:51:54.885Z,61.78
2022-12-01T04:54:21.236Z,65.25
2022-12-01T04:56:47.586Z,64.90
2022-12-01T04:59:13.984Z,64.13
2022-12-01T05:01:40.934Z,63.08
2022-12-01T05:04:07.572Z,56.28
2022-12-01T05:06:35.820Z,68.10
2022-12-01T05:09:02.545Z,70.35
2022-12-01T05:11:30.245Z,61.47
2022-12-01T05:13:57.094Z,68.63
2022-12-01T05:16:26.408Z,75.80
2022-12-01T05:19:16.634Z,75.30
2022-12-01T05:21:45.005Z,79.03
2022-12-01T05:24:12.785Z,78.70
2022-12-01T05:26:40.202Z,80.43
2022-12-01T05:29:06.996Z,76.53
2022-12-01T05:31:33.439Z,95.40
2022-12-01T05:33:59.902Z,80.88
2022-12-01T05:36:26.562Z,70.80
2022-12-01T05:38:52.929Z,81.43
2022-12-01T05:41:19.463Z,76.45
2022-12-01T05:43:45.798Z,73.25
2022-12-01T05:46:12.229Z,85.50
2022-12-01T05:48:38.806Z,79.03
2022-12-01T05:51:13.476Z,71.32
2022-12-01T05:53:39.824Z,70.10
2022-12-01T05:56:07.096Z,71.35
2022-12-01T05:58:39.256Z,71.00
2022-12-01T06:01:06.406Z,67.97
2022-12-01T06:03:33.089Z,69.88
2022-12-01T06:06:00.922Z,70.30
2022-12-01T06:08:29.035Z,62.50
2022-12-01T06:10:55.360Z,65.75
2022-12-01T06:13:21.907Z,64.15
2022-12-01T06:15:59.564Z,70.05
2022-12-01T06:18:27.181Z,56.20
2022-12-01T06:20:53.506Z,73.82
2022-12-01T06:23:20.115Z,68.10
2022-12-01T06:25:46.511Z,71.50
2022-12-01T06:28:14.436Z,78.95
2022-12-01T06:30:40.805Z,72.65
2022-12-01T06:33:07.678Z,67.90
2022-12-01T06:35:35.017Z,67.97
2022-12-01T06:38:01.632Z,65.07
2022-12-01T06:40:28.522Z,67.00
2022-12-01T06:42:54.888Z,68.47
2022-12-01T06:45:21.242Z,71.85
2022-12-01T06:47:48.345Z,62.70
2022-12-01T06:50:14.844Z,63.45
2022-12-01T06:52:41.360Z,65.53
2022-12-01T06:55:08.078Z,59.55
2022-12-01T06:57:34.837Z,62.55
2022-12-01T07:00:01.642Z,63.03
2022-12-01T07:02:28.364Z,70.78
2022-12-01T07:04:55.725Z,65.70
2022-12-01T07:07:22.180Z,68.20
2022-12-01T07:09:49.031Z,71.47
2022-12-01T07:12:15.714Z,61.45
2022-12-01T07:14:42.906Z,72.45
2022-12-01T07:17:09.795Z,67.70
2022-12-01T07:19:36.243Z,63.95
2022-12-01T07:22:02.666Z,67.85
2022-12-01T07:24:29.742Z,56.65
2022-12-01T07:26:56.102Z,52.17
2022-12-01T07:29:22.611Z,47.85
2022-12-01T07:31:48.957Z,50.13
2022-12-01T07:34:15.364Z,47.65
2022-12-01T07:36:41.773Z,47.05
2022-12-01T07:39:09.022Z,50.45
2022-12-01T07:41:35.821Z,54.30
2022-12-01T07:44:03.256Z,54.50
2022-12-01T07:46:29.943Z,45.45
2022-12-01T07:48:57.079Z,48.25
2022-12-01T07:51:24.928Z,52.65
2022-12-01T07:53:52.497Z,46.72
2022-12-01T07:56:20.566Z,48.33
2022-12-01T07:58:47.255Z,48.63
2022-12-01T08:01:20.781Z,41.80
2022-12-01T08:03:52.935Z,47.38
2022-12-01T08:06:20.607Z,46.90
2022-12-01T08:08:50.083Z,47.40
2022-12-01T08:11:24.438Z,45.97
2022-12-01T08:13:52.190Z,43.38
2022-12-01T08:16:21.054Z,50.13
2022-12-01T08:18:49.257Z,45.45
2022-12-01T08:21:19.457Z,46.50
2022-12-01T08:23:46.337Z,45.95
2022-12-01T08:26:15.967Z,50.42
2022-12-01T08:28:43.513Z,46.55
2022-12-01T08:31:19.636Z,44.97
2022-12-01T08:33:47.106Z,53.10
2022-12-01T08:36:13.919Z,51.42
2022-12-01T08:38:43.524Z,51.22
2022-12-01T08:41:12.083Z,61.90
2022-12-01T08:46:26.333Z,59.75
2022-12-01T08:48:54.908Z,62.60
2022-12-01T08:51:21.341Z,58.13
2022-12-01T08:53:50.636Z,61.40
2022-12-01T08:56:21.914Z,66.95
2022-12-01T08:58:51.202Z,64.13
2022-12-01T09:01:20.461Z,63.83
2022-12-01T09:03:46.853Z,66.13
2022-12-01T09:06:13.460Z,65.18
2022-12-01T09:08:40.213Z,63.30
2022-12-01T09:11:15.940Z,69.93
2022-12-01T09:13:43.589Z,73.85
2022-12-01T09:16:15.223Z,77.00
2022-12-01T09:18:43.140Z,81.32
2022-12-01T09:21:13.089Z,78.47
2022-12-01T09:23:39.884Z,82.75
2022-12-01T09:26:13.401Z,89.70
2022-12-01T09:28:40.496Z,87.55
2022-12-01T09:31:08.964Z,91.75
2022-12-01T09:36:03.280Z,94.82
2022-12-01T09:38:31.857Z,96.77
2022-12-01T09:43:37.797Z,96.18
2022-12-01T09:46:09.268Z,96.28
2022-12-01T09:48:44.880Z,99.05
2022-12-01T09:51:19.993Z,96.75
2022-12-01T09:53:50.234Z,98.63
2022-12-01T09:56:28.981Z,101.15
2022-12-01T09:58:59.317Z,100.35
2022-12-01T10:01:31.699Z,106.40
2022-12-01T10:04:06.175Z,106.78
2022-12-01T10:06:41.396Z,116.15
2022-12-01T10:09:29.989Z,103.22
2022-12-01T10:12:07.226Z,110.70
2022-12-01T10:14:37.837Z,105.35
2022-12-01T10:17:15.048Z,106.28
2022-12-01T10:19:52.627Z,114.13
2022-12-01T10:22:39.593Z,109.13
2022-12-01T10:25:21.725Z,113.97
2022-12-01T10:28:26.596Z,114.35
2022-12-01T10:30:56.037Z,110.15
2022-12-01T10:33:40.248Z,111.65
2022-12-01T10:36:08.918Z,114.25
2022-12-01T10:38:37.230Z,110.05
2022-12-01T10:41:05.651Z,114.45
2022-12-01T10:43:40.986Z,108.47
2022-12-01T10:46:25.999Z,110.35
2022-12-01T10:48:55.521Z,104.72
2022-12-01T10:51:22.687Z,106.15
2022-12-01T10:53:50.351Z,111.05
2022-12-01T10:56:19.812Z,116.80
2022-12-01T10:58:53.086Z,110.70
2022-12-01T11:01:35.722Z,110.25
2022-12-01T11:04:20.369Z,105.80
2022-12-01T11:06:51.258Z,105.85
2022-12-01T11:09:28.898Z,102.65
2022-12-01T11:12:04.858Z,104.50
2022-12-01T11:14:42.955Z,100.70
2022-12-01T11:17:26.969Z,103.28
2022-12-01T11:19:53.909Z,116.43
2022-12-01T11:22:24.464Z,108.28
2022-12-01T11:24:53.669Z,108.10
2022-12-01T11:27:22.925Z,106.78
2022-12-01T11:30:11.114Z,103.40
2022-12-01T11:32:39.922Z,104.25
2022-12-01T11:35:22.614Z,102.53
2022-12-01T11:38:27.240Z,101.43
2022-12-01T11:40:49.559Z,101.32
2022-12-01T11:43:26.656Z,100.10
2022-12-01T11:45:55.643Z,98.40
2022-12-01T11:48:27.673Z,96.80
2022-12-01T11:51:08.310Z,99.05
2022-12-01T11:53:37.551Z,92.40
2022-12-01T11:56:12.695Z,97.20
2022-12-01T11:58:39.066Z,95.97
2022-12-01T12:01:22.189Z,94.25
2022-12-01T12:04:03.640Z,92.45
2022-12-01T12:06:48.926Z,92.95
2022-12-01T12:09:44.940Z,83.65
2022-12-01T12:12:41.001Z,91.68
2022-12-01T12:15:26.446Z,100.05
2022-12-01T12:18:06.042Z,98.30
2022-12-01T12:20:41.590Z,99.32
2022-12-01T12:23:25.529Z,95.35
2022-12-01T12:26:15.789Z,94.00
2022-12-01T12:28:56.116Z,90.95
2022-12-01T12:31:32.346Z,92.20
2022-12-01T12:34:27.100Z,87.28
2022-12-01T12:37:02.621Z,83.72
2022-12-01T12:40:02.372Z,90.43
2022-12-01T12:42:37.703Z,89.50
2022-12-01T12:45:25.611Z,91.10
2022-12-01T12:48:24.271Z,91.72
2022-12-01T12:51:08.577Z,92.32
2022-12-01T12:53:52.605Z,88.60
2022-12-01T12:56:22.697Z,90.15
2022-12-01T12:59:00.543Z,84.50
2022-12-01T13:01:42.169Z,84.03
2022-12-01T13:04:47.837Z,81.57
2022-12-01T13:07:34.352Z,81.03
2022-12-01T13:10:12.042Z,87.43
2022-12-01T13:12:45.719Z,85.80
2022-12-01T13:15:17.882Z,80.82
2022-12-01T13:17:49.512Z,76.05
2022-12-01T13:20:19.314Z,77.43
2022-12-01T13:22:47.075Z,80.20
2022-12-01T13:25:23.220Z,81.10
2022-12-01T13:27:52.303Z,80.63
2022-12-01T13:30:25.008Z,76.70
2022-12-01T13:33:00.979Z,88.95
2022-12-01T13:35:33.828Z,89.28
2022-12-01T13:38:36.082Z,83.43
2022-12-01T13:41:22.533Z,81.20
2022-12-01T13:43:58.476Z,80.00
2022-12-01T13:46:45.397Z,93.38
2022-12-01T13:49:40.355Z,84.25
2022-12-01T13:52:22.150Z,82.43
2022-12-01T13:55:08.320Z,83.38
2022-12-01T13:57:35.956Z,90.78
2022-12-01T14:00:24.261Z,88.93
2022-12-01T14:05:44.697Z,82.75
2022-12-01T14:08:22.867Z,81.57
2022-12-01T14:11:25.706Z,84.72
2022-12-01T14:13:58.449Z,84.18
2022-12-01T14:16:25.272Z,84.88
2022-12-01T14:18:58.392Z,101.20
2022-12-01T14:21:43.780Z,82.57
2022-12-01T14:24:22.220Z,89.10
2022-12-01T14:29:26.598Z,75.03
2022-12-01T14:32:04.072Z,85.97
2022-12-01T14:37:03.439Z,85.43
2022-12-01T14:39:40.207Z,86.53
2022-12-01T14:42:55.143Z,87.13
2022-12-01T14:45:47.736Z,80.15
2022-12-01T14:48:19.263Z,88.80
2022-12-01T14:50:53.101Z,85.82
2022-12-01T14:53:27.225Z,93.00
2022-12-01T14:55:57.495Z,89.00
2022-12-01T14:58:28.285Z,88.20
2022-12-01T15:01:06.661Z,93.60
2022-12-01T15:03:51.462Z,92.43
2022-12-01T15:06:26.467Z,87.50
2022-12-01T15:09:33.959Z,92.45
2022-12-01T15:12:03.551Z,96.63
2022-12-01T15:14:34.945Z,84.45
2022-12-01T15:17:05.865Z,95.80
2022-12-01T15:19:38.616Z,86.47
2022-12-01T15:22:12.594Z,89.38
2022-12-01T15:24:39.752Z,89.57
2022-12-01T15:27:39.521Z,93.95
2022-12-01T15:30:07.980Z,92.32
2022-12-01T15:32:38.198Z,85.95
2022-12-01T15:35:07.402Z,81.00
2022-12-01T15:37:43.339Z,75.30
2022-12-01T15:43:06.938Z,76.95
2022-12-01T15:46:12.422Z,66.43
2022-12-01T15:48:39.239Z,74.57
2022-12-01T15:51:13.934Z,73.72
2022-12-01T15:53:48.006Z,68.57
2022-12-01T15:56:14.797Z,69.93
2022-12-01T15:58:47.332Z,66.03
2022-12-01T16:01:20.652Z,69.50
2022-12-01T16:03:57.060Z,67.70
2022-12-01T16:06:30.248Z,66.40
2022-12-01T16:09:35.191Z,71.03
2022-12-01T16:12:14.655Z,74.40
2022-12-01T16:15:00.230Z,71.75
2022-12-01T16:17:42.932Z,69.90
2022-12-01T16:20:25.049Z,74.85
2022-12-01T16:22:58.663Z,73.32
2022-12-01T16:25:43.584Z,72.47
2022-12-01T16:28:22.257Z,73.97
2022-12-01T16:30:49.836Z,75.78
2022-12-01T16:33:19.673Z,69.80
2022-12-01T16:35:46.225Z,79.78
2022-12-01T16:38:22.496Z,71.25
2022-12-01T16:40:51.610Z,74.35
2022-12-01T16:43:22.202Z,75.68
2022-12-01T16:45:55.736Z,76.43
2022-12-01T16:48:22.322Z,75.75
2022-12-01T16:50:50.108Z,79.05
2022-12-01T16:53:17.631Z,79.03
2022-12-01T16:55:50.605Z,78.82
2022-12-01T16:58:17.370Z,84.43
2022-12-01T17:00:44.284Z,78.88
2022-12-01T17:03:18.046Z,78.93
2022-12-01T17:05:45.843Z,78.93
2022-12-01T17:08:12.457Z,88.97
2022-12-01T17:10:50.780Z,79.85
2022-12-01T17:13:17.988Z,86.13
2022-12-01T17:15:47.068Z,83.68
2022-12-01T17:18:16.261Z,79.15
2022-12-01T17:20:43.051Z,75.25
2022-12-01T17:23:10.042Z,81.35
2022-12-01T17:25:40.653Z,82.53
2022-12-01T17:28:07.331Z,77.05
2022-12-01T17:30:35.872Z,77.15
2022-12-01T17:35:29.107Z,73.05
2022-12-01T17:37:55.409Z,73.88
2022-12-01T17:40:21.737Z,70.55
2022-12-01T17:42:51.112Z,73.85
2022-12-01T17:45:19.072Z,65.88
2022-12-01T17:47:45.624Z,65.57
2022-12-01T17:50:12.209Z,58.58
2022-12-01T17:52:38.704Z,63.60
2022-12-01T17:55:05.626Z,67.10
2022-12-01T17:57:32.442Z,67.00
2022-12-01T17:59:58.806Z,72.05
2022-12-01T18:02:25.289Z,67.78
2022-12-01T18:04:54.770Z,69.65
2022-12-01T18:07:21.738Z,64.32
2022-12-01T18:09:48.145Z,69.15
2022-12-01T18:12:14.529Z,64.00
2022-12-01T18:14:41.933Z,67.30
2022-12-01T18:17:09.934Z,75.05
2022-12-01T18:19:36.423Z,67.38
2022-12-01T18:22:02.782Z,65.43
2022-12-01T18:24:29.115Z,70.32
2022-12-01T18:26:56.416Z,71.60
2022-12-01T18:29:26.146Z,65.63
2022-12-01T18:31:58.987Z,69.60
2022-12-01T18:34:29.340Z,65.50
2022-12-01T18:36:55.959Z,70.60
2022-12-01T18:39:22.470Z,73.78
2022-12-01T18:41:50.552Z,70.25
2022-12-01T18:44:17.055Z,75.03
2022-12-01T18:46:43.706Z,72.35
2022-12-01T18:49:11.570Z,69.13
2022-12-01T18:51:39.412Z,76.82
2022-12-01T18:54:07.812Z,75.70
2022-12-01T18:56:34.729Z,75.53
2022-12-01T18:59:05.060Z,77.45
2022-12-01T19:01:41.041Z,78.03
2022-12-01T19:04:08.598Z,69.85
2022-12-01T19:06:36.531Z,72.45
2022-12-01T19:09:06.979Z,77.82
2022-12-01T19:11:33.538Z,72.45
2022-12-01T19:14:00.102Z,78.20
2022-12-01T19:16:26.872Z,81.03
2022-12-01T19:18:53.481Z,80.63
2022-12-01T19:21:20.514Z,77.28
2022-12-01T19:23:49.258Z,72.07
2022-12-01T19:26:18.698Z,78.65
2022-12-01T19:28:45.955Z,77.05
2022-12-01T19:31:19.386Z,80.88
2022-12-01T19:33:46.558Z,73.28
2022-12-01T19:36:15.984Z,75.35
2022-12-01T19:38:42.660Z,74.93
2022-12-01T19:41:09.557Z,79.03
2022-12-01T19:43:37.676Z,86.57
2022-12-01T19:46:09.701Z,71.63
2022-12-01T19:48:36.905Z,78.13
2022-12-01T19:51:03.992Z,80.10
2022-12-01T19:53:33.833Z,91.45
2022-12-01T19:56:03.001Z,84.03
2022-12-01T19:58:31.954Z,84.38
2022-12-01T20:01:07.026Z,81.03
2022-12-01T20:03:33.787Z,81.63
2022-12-01T20:06:02.593Z,82.35
2022-12-01T20:08:29.002Z,75.90
2022-12-01T20:10:55.411Z,77.88
2022-12-01T20:13:23.510Z,79.55
2022-12-01T20:15:50.030Z,84.75
2022-12-01T20:18:16.530Z,79.88
2022-12-01T20:20:42.937Z,80.60
2022-12-01T20:23:10.794Z,83.13
2022-12-01T20:25:37.373Z,78.35
2022-12-01T20:28:03.838Z,76.57
2022-12-01T20:30:30.333Z,77.85
2022-12-01T20:32:57.015Z,75.65
2022-12-01T20:35:23.597Z,75.18
2022-12-01T20:37:52.046Z,74.30
2022-12-01T20:40:18.660Z,73.63
2022-12-01T20:42:46.858Z,79.10
2022-12-01T20:45:13.355Z,76.35
2022-12-01T20:47:40.553Z,74.10
2022-12-01T20:50:07.314Z,74.80
2022-12-01T20:52:34.126Z,79.43
2022-12-01T20:55:00.430Z,79.53
2022-12-01T20:57:27.821Z,71.25
2022-12-01T20:59:54.336Z,70.78
2022-12-01T21:02:20.928Z,79.88
2022-12-01T21:04:47.435Z,75.55
2022-12-01T21:07:13.805Z,78.93
2022-12-01T21:09:40.260Z,76.70
2022-12-01T21:12:34.884Z,76.88
2022-12-01T21:15:23.471Z,74.97
2022-12-01T21:17:56.251Z,87.32
2022-12-01T21:20:29.929Z,92.35
2022-12-01T21:23:18.076Z,92.93
2022-12-01T21:25:44.894Z,91.28
2022-12-01T21:28:23.794Z,89.07
2022-12-01T21:30:59.682Z,84.80
2022-12-01T21:33:27.664Z,89.78
2022-12-01T21:35:55.944Z,83.70
2022-12-01T21:38:22.792Z,84.20
2022-12-01T21:40:49.285Z,74.13
2022-12-01T21:43:24.630Z,76.85
2022-12-01T21:45:57.885Z,77.88
2022-12-01T21:48:24.750Z,67.82
2022-12-01T21:51:00.410Z,66.70
2022-12-01T21:53:32.204Z,71.45
2022-12-01T21:55:58.589Z,74.38
2022-12-01T21:58:28.914Z,78.65
2022-12-01T22:00:58.228Z,71.82
2022-12-01T22:03:32.295Z,79.90
2022-12-01T22:06:28.385Z,72.05
2022-12-01T22:08:50.528Z,72.68
2022-12-01T22:11:25.302Z,76.18
2022-12-01T22:13:54.654Z,75.15
2022-12-01T22:16:38.161Z,78.63
2022-12-01T22:19:22.909Z,73.57
2022-12-01T22:21:59.662Z,74.28
2022-12-01T22:24:28.419Z,75.35
2022-12-01T22:27:26.965Z,70.00
2022-12-01T22:30:02.844Z,70.97
2022-12-01T22:32:32.181Z,67.82
2022-12-01T22:35:18.687Z,69.05
2022-12-01T22:37:48.383Z,73.22
2022-12-01T22:40:41.126Z,70.93
2022-12-01T22:43:17.046Z,79.10
2022-12-01T22:45:45.349Z,70.45
2022-12-01T22:48:44.577Z,67.60
2022-12-01T22:51:14.270Z,64.28
2022-12-01T22:53:44.315Z,64.80
2022-12-01T22:56:26.118Z,69.15
2022-12-01T22:58:52.773Z,65.57
2022-12-01T23:01:30.876Z,71.90
2022-12-01T23:04:20.148Z,61.33
2022-12-01T23:06:56.209Z,57.72
2022-12-01T23:09:26.645Z,61.80
2022-12-01T23:12:13.321Z,58.28
2022-12-01T23:14:49.579Z,61.13
2022-12-01T23:17:20.918Z,63.22
2022-12-01T23:19:49.925Z,68.18
2022-12-01T23:22:16.920Z,65.28
2022-12-01T23:24:43.807Z,69.88
2022-12-01T23:27:10.357Z,78.70
2022-12-01T23:29:37.994Z,73.00
2022-12-01T23:32:04.521Z,67.73
2022-12-01T23:34:30.892Z,70.75
2022-12-01T23:36:57.433Z,77.35
2022-12-01T23:39:31.136Z,80.18
2022-12-01T23:41:57.537Z,83.10
2022-12-01T23:44:38.575Z,82.47
2022-12-01T23:47:18.352Z,84.75
2022-12-01T23:49:47.842Z,86.28
2022-12-01T23:52:19.653Z,83.88
2022-12-01T23:54:47.012Z,88.15
2022-12-01T23:57:23.379Z,97.60
2022-12-01T23:59:53.512Z,90.43
